Time;durP1;ratioP1;P1;durP2;ratioP2;P2;SDS_P1;SDS_P2;PMS_P1;PMS_P2;Temp;Humidity;BMP_temperature;BMP_pressure;BME280_temperature;BME280_humidity;BME280_pressure;Samples;Min_cycle;Max_cycle;Signal;HPM_P1;HPM_P2
2022/10/25 07:18:36;;;;;;;5.00;2.07;;;11.00;99.90;;;;;;5139134;27;20263;-84
2022/10/25 07:21:05;;;;;;;2.63;2.00;;;11.10;99.90;;;;;;5124189;28;20195;-84
2022/10/25 07:23:31;;;;;;;5.00;2.27;;;11.20;99.90;;;;;;5138045;28;20206;-84
2022/10/25 07:25:57;;;;;;;2.33;1.67;;;11.30;99.90;;;;;;5135890;28;20175;-84
2022/10/25 07:28:23;;;;;;;4.03;1.33;;;11.40;99.90;;;;;;5135966;27;20534;-84
2022/10/25 07:30:49;;;;;;;2.70;2.00;;;11.50;99.90;;;;;;5134548;28;20571;-84
2022/10/25 07:33:17;;;;;;;4.23;1.47;;;11.60;99.90;;;;;;5136916;28;20242;-84
2022/10/25 07:35:50;;;;;;;4.80;1.70;;;11.70;99.90;;;;;;5136491;28;20175;-83
2022/10/25 07:38:16;;;;;;;3.40;1.40;;;11.90;99.90;;;;;;5138134;27;20686;-85
2022/10/25 07:40:42;;;;;;;6.20;1.73;;;12.10;99.90;;;;;;5136856;28;20675;-84
2022/10/25 07:43:08;;;;;;;4.33;1.90;;;12.40;99.90;;;;;;5136579;28;20270;-84
2022/10/25 07:45:35;;;;;;;5.47;1.90;;;12.70;99.90;;;;;;5137617;27;20242;-84
2022/10/25 07:48:00;;;;;;;8.33;2.53;;;13.00;99.90;;;;;;5136418;28;21002;-84
2022/10/25 07:50:26;;;;;;;3.63;1.60;;;13.30;99.90;;;;;;5149520;27;20167;-85
2022/10/25 07:52:53;;;;;;;2.67;1.17;;;13.50;99.90;;;;;;5142105;27;20175;-84
2022/10/25 07:55:19;;;;;;;3.47;1.57;;;13.70;99.90;;;;;;5136055;28;20186;-84
2022/10/25 07:57:45;;;;;;;2.27;1.30;;;14.20;99.90;;;;;;5133465;28;20667;-83
2022/10/25 08:00:11;;;;;;;4.43;1.27;;;14.90;99.90;;;;;;5135043;27;20581;-82
2022/10/25 08:02:37;;;;;;;5.23;2.77;;;15.50;99.90;;;;;;5133898;27;20190;-84
2022/10/25 08:05:03;;;;;;;10.40;6.53;;;16.30;99.90;;;;;;5133093;28;20587;-84
2022/10/25 08:07:28;;;;;;;10.60;4.27;;;16.80;99.90;;;;;;5134524;27;20214;-83
2022/10/25 08:09:54;;;;;;;27.50;13.37;;;17.40;99.90;;;;;;5135728;27;20180;-84
2022/10/25 08:12:20;;;;;;;5.37;2.73;;;18.00;99.90;;;;;;5134506;27;20276;-84
2022/10/25 08:14:46;;;;;;;3.90;1.40;;;;;;;;;;5133339;28;20187;-84
2022/10/25 08:17:11;;;;;;;5.13;1.87;;;18.00;99.90;;;;;;5133804;28;20723;-83
2022/10/25 08:19:37;;;;;;;18.53;10.93;;;18.10;99.90;;;;;;5135184;27;20181;-82
2022/10/25 08:22:03;;;;;;;4.73;2.23;;;;;;;;;;5133401;28;20203;-83
2022/10/25 08:24:29;;;;;;;4.90;2.50;;;17.00;99.90;;;;;;5134766;28;20170;-83
2022/10/25 08:26:55;;;;;;;7.77;2.17;;;;;;;;;;5134105;27;20171;-84
2022/10/25 08:29:21;;;;;;;2.97;1.40;;;16.10;99.90;;;;;;5123159;28;20178;-84
2022/10/25 08:31:46;;;;;;;5.47;1.20;;;15.60;99.90;;;;;;5119295;28;20563;-84
2022/10/25 08:34:12;;;;;;;4.47;1.20;;;15.30;99.90;;;;;;5120075;28;20755;-83
2022/10/25 08:36:37;;;;;;;3.23;1.07;;;15.30;99.90;;;;;;5121280;28;20665;-83
2022/10/25 08:39:03;;;;;;;1.87;1.10;;;16.10;99.90;;;;;;5119267;28;20180;-86
2022/10/25 08:41:51;;;;;;;2.73;1.10;;;16.90;99.90;;;;;;5121746;28;20216;-84
2022/10/25 08:44:39;;;;;;;1.50;1.20;;;17.80;99.90;;;;;;5121064;28;20170;-83
2022/10/25 08:47:28;;;;;;;1.97;1.17;;;18.40;99.90;;;;;;5122301;28;20521;-83
2022/10/25 08:50:09;;;;;;;3.30;1.23;;;18.50;99.90;;;;;;5123449;28;20177;-84
2022/10/25 08:52:52;;;;;;;2.77;1.03;;;18.70;99.90;;;;;;5123471;28;20654;-84
2022/10/25 08:55:34;;;;;;;3.33;1.13;;;18.80;99.90;;;;;;5125128;28;20259;-82
2022/10/25 08:58:02;;;;;;;2.03;0.93;;;19.10;99.90;;;;;;5126325;28;20195;-82
2022/10/25 09:00:35;;;;;;;1.43;1.00;;;19.10;99.90;;;;;;5125636;28;20215;-84
2022/10/25 09:03:02;;;;;;;1.87;0.87;;;19.10;99.90;;;;;;5120882;28;20573;-85
2022/10/25 09:05:50;;;;;;;1.97;0.90;;;19.30;99.90;;;;;;5118967;28;20218;-85
2022/10/25 09:08:38;;;;;;;3.53;1.13;;;19.20;99.90;;;;;;5119115;28;20196;-85
2022/10/25 09:11:30;;;;;;;3.13;0.87;;;19.60;99.90;;;;;;5117755;28;20199;-86
2022/10/25 09:14:01;;;;;;;3.07;1.00;;;19.50;99.90;;;;;;5118869;28;20148;-84
2022/10/25 09:16:36;;;;;;;2.70;0.80;;;19.50;99.90;;;;;;5118465;28;20176;-83
2022/10/25 09:19:12;;;;;;;3.37;0.80;;;19.70;99.90;;;;;;5117461;28;20161;-84
2022/10/25 09:21:54;;;;;;;3.37;1.37;;;19.70;99.90;;;;;;5118463;28;20185;-83
2022/10/25 09:24:27;;;;;;;2.00;0.90;;;19.50;99.90;;;;;;5118424;27;20612;-84
2022/10/25 09:27:11;;;;;;;2.30;0.90;;;19.30;99.90;;;;;;5117830;28;20189;-83
2022/10/25 09:29:40;;;;;;;3.60;1.10;;;19.30;99.90;;;;;;5118291;28;20181;-83
2022/10/25 09:32:34;;;;;;;1.63;0.73;;;19.60;99.90;;;;;;5116446;28;20191;-86
2022/10/25 09:35:02;;;;;;;1.70;1.03;;;19.60;99.90;;;;;;5093355;28;20199;-89
2022/10/25 09:37:34;;;;;;;1.10;0.60;;;19.60;99.90;;;;;;5121336;28;20269;-84
2022/10/25 09:40:05;;;;;;;3.57;0.83;;;19.50;99.90;;;;;;5119400;27;20248;-84
2022/10/25 09:42:45;;;;;;;1.87;0.97;;;19.60;99.90;;;;;;5118725;28;20541;-85
2022/10/25 09:46:04;;;;;;;1.60;0.70;;;19.90;99.90;;;;;;5121854;28;20345;-86
2022/10/25 09:48:45;;;;;;;3.97;0.80;;;19.90;99.90;;;;;;5061930;28;20208;-84
2022/10/25 09:51:42;;;;;;;1.93;0.90;;;20.00;99.90;;;;;;5113761;28;20210;-84
2022/10/25 09:54:23;;;;;;;1.37;0.80;;;20.10;99.90;;;;;;5120125;28;20237;-86
2022/10/25 09:56:49;;;;;;;1.30;0.80;;;20.20;99.90;;;;;;5125075;27;20229;-85
2022/10/25 09:59:15;;;;;;;1.33;0.70;;;20.40;99.90;;;;;;5119728;28;20173;-85
2022/10/25 10:01:41;;;;;;;2.17;0.80;;;20.20;99.90;;;;;;5117319;28;20221;-85
2022/10/25 10:04:22;;;;;;;1.50;0.70;;;20.00;99.90;;;;;;5116928;28;20179;-85
2022/10/25 10:06:51;;;;;;;2.37;0.90;;;19.70;99.90;;;;;;5116634;28;20287;-85
2022/10/25 10:09:17;;;;;;;1.77;0.83;;;19.60;99.90;;;;;;5117921;28;20181;-82
2022/10/25 10:11:46;;;;;;;2.33;0.90;;;20.10;99.90;;;;;;5117782;28;20193;-84
2022/10/25 10:14:27;;;;;;;2.53;0.90;;;20.30;99.90;;;;;;5118269;28;20167;-83
2022/10/25 10:16:55;;;;;;;1.70;0.93;;;20.40;99.90;;;;;;5116030;28;20201;-85
2022/10/25 10:19:24;;;;;;;2.50;0.90;;;20.40;99.90;;;;;;5117866;28;20262;-81
2022/10/25 10:21:57;;;;;;;4.10;1.00;;;20.50;99.90;;;;;;5118413;28;20224;-86
2022/10/25 10:24:43;;;;;;;1.73;0.73;;;20.80;99.90;;;;;;5119911;28;20189;-85
2022/10/25 10:27:19;;;;;;;1.67;0.80;;;21.00;99.90;;;;;;5118289;28;20189;-83
2022/10/25 10:30:07;;;;;;;1.83;0.70;;;20.90;99.90;;;;;;5117202;28;20203;-84
2022/10/25 10:32:38;;;;;;;3.23;1.07;;;20.70;99.90;;;;;;5117130;28;20673;-85
2022/10/25 10:35:25;;;;;;;2.50;0.80;;;20.70;99.90;;;;;;5117851;28;20232;-85
2022/10/25 10:37:51;;;;;;;3.90;0.90;;;21.00;99.90;;;;;;5119011;28;20177;-86
2022/10/25 10:40:16;;;;;;;3.80;0.63;;;21.20;99.90;;;;;;5117394;28;20207;-85
2022/10/25 10:42:42;;;;;;;1.83;0.80;;;21.20;99.90;;;;;;5119935;28;20176;-85
2022/10/25 10:45:18;;;;;;;2.63;1.03;;;21.20;99.90;;;;;;5122621;28;20537;-86
2022/10/25 10:47:50;;;;;;;1.13;0.70;;;21.10;99.90;;;;;;5120894;28;20193;-86
2022/10/25 10:50:23;;;;;;;3.00;0.83;;;;;;;;;;5120963;28;20176;-84
2022/10/25 10:52:55;;;;;;;1.03;0.70;;;21.70;99.90;;;;;;5120263;28;20264;-86
2022/10/25 10:55:34;;;;;;;2.23;0.80;;;22.20;99.90;;;;;;5121533;28;20178;-88
2022/10/25 10:58:04;;;;;;;2.47;0.90;;;22.40;99.90;;;;;;5120099;28;20215;-87
2022/10/25 11:00:32;;;;;;;4.13;1.17;;;22.60;99.90;;;;;;5120622;28;20175;-87
2022/10/25 11:02:58;;;;;;;4.17;0.90;;;22.60;99.90;;;;;;5119827;28;20259;-86
2022/10/25 11:05:24;;;;;;;2.17;0.80;;;;;;;;;;5120279;28;20331;-87
2022/10/25 11:08:00;;;;;;;3.10;0.87;;;23.00;99.90;;;;;;5121458;28;20200;-87
2022/10/25 11:10:34;;;;;;;2.30;0.83;;;23.10;99.90;;;;;;5120639;28;20176;-87
2022/10/25 11:13:15;;;;;;;2.83;0.90;;;23.10;99.90;;;;;;5119343;28;20225;-87
2022/10/25 11:15:44;;;;;;;3.67;0.87;;;23.50;99.90;;;;;;5120252;28;20167;-87
2022/10/25 11:18:12;;;;;;;3.67;0.80;;;23.40;99.90;;;;;;5118956;28;20558;-86
2022/10/25 11:21:18;;;;;;;1.97;0.90;;;23.60;99.90;;;;;;5120226;28;20204;-88
2022/10/25 11:24:05;;;;;;;1.93;0.80;;;23.70;99.90;;;;;;5098966;28;20590;-87
2022/10/25 11:26:43;;;;;;;3.27;0.70;;;23.80;99.90;;;;;;5120045;28;20177;-87
2022/10/25 11:29:40;;;;;;;2.50;0.80;;;24.50;99.90;;;;;;5120489;28;20169;-85
2022/10/25 11:32:27;;;;;;;2.73;0.90;;;24.20;99.90;;;;;;5117621;28;20272;-85
2022/10/25 11:35:26;;;;;;;2.97;0.87;;;24.40;99.90;;;;;;5121746;28;20535;-86
2022/10/25 11:37:56;;;;;;;2.00;0.90;;;24.40;99.90;;;;;;5120611;28;20154;-87
2022/10/25 11:40:31;;;;;;;2.10;0.93;;;24.30;99.90;;;;;;5118612;28;20179;-87
2022/10/25 11:43:06;;;;;;;1.37;0.73;;;24.30;99.90;;;;;;5120737;28;20507;-87
2022/10/25 11:45:42;;;;;;;1.43;1.00;;;24.50;99.90;;;;;;5118862;28;20534;-88
2022/10/25 11:48:26;;;;;;;2.57;1.27;;;24.50;99.90;;;;;;5119827;28;20201;-88
2022/10/25 11:51:20;;;;;;;2.30;1.17;;;25.10;99.30;;;;;;5119897;28;20197;-87
2022/10/25 11:54:14;;;;;;;2.50;1.10;;;25.10;99.80;;;;;;5121322;28;20508;-86
2022/10/25 11:56:48;;;;;;;3.60;1.10;;;25.00;99.90;;;;;;5122575;28;20243;-87
2022/10/25 11:59:39;;;;;;;3.27;1.00;;;25.30;98.50;;;;;;5120282;28;20186;-85
2022/10/25 12:02:18;;;;;;;3.37;1.23;;;25.40;98.30;;;;;;5120950;28;20196;-86
2022/10/25 12:05:09;;;;;;;3.57;1.17;;;25.40;99.30;;;;;;5121145;28;20196;-88
2022/10/25 12:07:48;;;;;;;1.43;0.90;;;25.30;97.10;;;;;;5123293;28;20190;-86
2022/10/25 12:10:46;;;;;;;2.77;1.00;;;25.30;97.60;;;;;;5124070;28;20185;-87
2022/10/25 12:13:23;;;;;;;2.03;1.27;;;25.20;97.30;;;;;;5122670;28;20728;-88
2022/10/25 12:15:52;;;;;;;1.73;0.90;;;25.50;97.60;;;;;;5122504;28;20185;-89
2022/10/25 12:18:30;;;;;;;3.60;1.13;;;25.40;96.30;;;;;;5123093;28;20197;-87
2022/10/25 12:20:56;;;;;;;2.30;1.03;;;25.30;95.20;;;;;;5124321;28;20222;-87
2022/10/25 12:23:24;;;;;;;1.57;0.83;;;25.70;96.60;;;;;;5125333;28;20179;-86
2022/10/25 12:26:05;;;;;;;9.43;1.30;;;25.60;96.80;;;;;;5125662;28;20285;-88
2022/10/25 12:28:40;;;;;;;2.67;0.90;;;25.20;94.80;;;;;;5125895;28;20196;-88
2022/10/25 12:31:14;;;;;;;3.10;0.90;;;24.10;96.70;;;;;;5124309;28;20221;-86
2022/10/25 12:34:03;;;;;;;2.20;1.00;;;23.50;96.30;;;;;;5124427;28;20249;-88
2022/10/25 12:36:36;;;;;;;3.17;1.03;;;23.50;96.80;;;;;;5124317;28;20550;-88
2022/10/25 12:39:26;;;;;;;2.30;1.23;;;23.30;98.70;;;;;;5125561;28;20525;-88
2022/10/25 12:41:57;;;;;;;2.43;0.97;;;22.90;96.30;;;;;;5117438;28;20273;-85
2022/10/25 12:44:50;;;;;;;2.67;1.03;;;22.10;97.90;;;;;;5124510;27;20160;-85
2022/10/25 12:47:41;;;;;;;2.53;0.90;;;21.40;99.90;;;;;;5120887;28;20263;-84
2022/10/25 12:50:35;;;;;;;4.73;1.37;;;21.50;98.00;;;;;;5091869;28;20195;-84
2022/10/25 12:53:36;;;;;;;3.97;1.10;;;21.70;99.90;;;;;;5125101;28;20156;-87
2022/10/25 12:56:11;;;;;;;2.30;1.30;;;23.50;98.60;;;;;;5123396;28;20212;-89
2022/10/25 12:59:05;;;;;;;3.03;1.40;;;24.60;97.30;;;;;;5124350;28;20205;-88
2022/10/25 13:01:45;;;;;;;3.67;1.03;;;25.00;95.80;;;;;;5122128;28;20203;-88
2022/10/25 13:04:39;;;;;;;3.60;0.90;;;25.50;95.90;;;;;;5121827;28;20179;-85
2022/10/25 13:07:06;;;;;;;1.83;0.93;;;25.60;95.50;;;;;;5123175;28;20200;-89
2022/10/25 13:09:33;;;;;;;1.17;0.60;;;25.70;94.40;;;;;;5122875;28;20516;-87
2022/10/25 13:12:03;;;;;;;2.23;1.17;;;26.50;92.00;;;;;;5121613;28;20192;-88
2022/10/25 13:14:29;;;;;;;1.93;0.87;;;26.00;92.70;;;;;;5122009;28;20177;-89
2022/10/25 13:17:16;;;;;;;2.37;1.17;;;24.90;93.40;;;;;;5122830;28;20701;-87
2022/10/25 13:19:53;;;;;;;4.83;1.13;;;23.40;94.40;;;;;;5123071;28;20176;-88
2022/10/25 13:22:29;;;;;;;2.30;1.00;;;22.70;95.10;;;;;;5122649;28;20577;-89
2022/10/25 13:25:00;;;;;;;2.47;0.87;;;23.10;96.20;;;;;;5120489;28;20179;-87
2022/10/25 13:27:28;;;;;;;1.40;0.70;;;23.80;96.20;;;;;;5122963;28;20192;-86
2022/10/25 13:30:11;;;;;;;1.37;0.70;;;24.50;95.90;;;;;;5125429;28;20176;-87
2022/10/25 13:32:42;;;;;;;2.00;0.97;;;25.30;94.40;;;;;;5119825;28;20200;-88
2022/10/25 13:35:28;;;;;;;2.20;0.80;;;25.70;93.10;;;;;;5123720;28;20297;-86
2022/10/25 13:38:06;;;;;;;13.70;1.73;;;26.00;93.90;;;;;;5087746;28;20186;-88
2022/10/25 13:40:31;;;;;;;2.70;0.97;;;24.90;92.60;;;;;;5120446;28;20255;-88
2022/10/25 13:43:06;;;;;;;2.30;1.00;;;24.80;93.70;;;;;;5119917;28;20178;-88
2022/10/25 13:45:39;;;;;;;3.23;0.93;;;24.80;93.20;;;;;;5120134;27;20188;-88
2022/10/25 13:48:14;;;;;;;1.30;0.80;;;24.90;92.60;;;;;;5121236;28;20199;-89
2022/10/25 13:50:53;;;;;;;4.10;1.00;;;23.30;93.20;;;;;;5118955;28;20198;-88
2022/10/25 13:53:38;;;;;;;1.93;0.83;;;23.00;94.30;;;;;;5120688;28;20572;-89
2022/10/25 13:56:05;;;;;;;1.93;1.00;;;21.80;95.60;;;;;;5119653;28;20207;-88
2022/10/25 13:58:49;;;;;;;4.37;1.30;;;20.80;98.00;;;;;;5121438;28;20171;-89
2022/10/25 14:01:15;;;;;;;2.70;1.07;;;20.00;99.70;;;;;;5119409;28;20338;-89
2022/10/25 14:04:19;;;;;;;2.97;1.03;;;19.40;99.90;;;;;;5120849;28;20212;-87
2022/10/25 14:06:45;;;;;;;4.53;1.10;;;18.80;99.90;;;;;;5118584;28;20223;-85
2022/10/25 14:09:33;;;;;;;2.03;1.07;;;18.40;99.90;;;;;;5118001;28;20197;-88
2022/10/25 14:12:01;;;;;;;1.33;0.97;;;18.20;99.90;;;;;;5117913;28;20199;-87
2022/10/25 14:14:51;;;;;;;5.07;1.10;;;18.10;99.90;;;;;;5117970;28;20175;-86
2022/10/25 14:17:36;;;;;;;5.53;1.17;;;17.90;99.90;;;;;;5118475;28;20236;-86
2022/10/25 14:20:18;;;;;;;6.00;1.10;;;17.70;99.90;;;;;;5118119;28;20578;-86
2022/10/25 14:23:00;;;;;;;5.93;1.00;;;17.70;99.90;;;;;;5120080;27;20170;-87
2022/10/25 14:25:39;;;;;;;3.03;1.00;;;17.70;99.90;;;;;;5121293;28;20156;-87
2022/10/25 14:28:06;;;;;;;7.17;1.30;;;17.60;99.90;;;;;;5120397;28;20653;-86
2022/10/25 14:30:59;;;;;;;1.23;0.80;;;17.50;99.90;;;;;;5120604;28;20181;-87
2022/10/25 14:33:29;;;;;;;1.50;1.00;;;17.50;99.90;;;;;;5116707;28;20194;-86
2022/10/25 14:36:04;;;;;;;2.93;1.00;;;17.40;99.90;;;;;;5118290;28;20189;-88
2022/10/25 14:38:30;;;;;;;5.20;1.20;;;17.30;99.90;;;;;;5118972;28;20176;-88
2022/10/25 14:41:02;;;;;;;2.87;0.93;;;17.30;99.90;;;;;;5117883;28;20209;-87
2022/10/25 14:43:33;;;;;;;3.07;0.90;;;17.20;99.90;;;;;;5118687;28;20218;-87
2022/10/25 14:46:11;;;;;;;4.57;1.00;;;17.10;99.90;;;;;;5118993;28;20177;-88
2022/10/25 14:48:37;;;;;;;3.80;1.37;;;;;;;;;;5118109;28;20222;-86
2022/10/25 14:51:20;;;;;;;2.67;1.20;;;17.00;99.90;;;;;;5118098;28;20290;-86
2022/10/25 14:54:21;;;;;;;4.13;1.10;;;16.90;99.90;;;;;;5118622;28;20185;-86
2022/10/25 14:56:57;;;;;;;2.43;1.00;;;16.80;99.90;;;;;;5118447;28;20249;-86
2022/10/25 14:59:43;;;;;;;5.23;1.27;;;16.80;99.90;;;;;;5117932;28;20182;-89
2022/10/25 15:02:21;;;;;;;6.43;1.63;;;16.80;99.90;;;;;;5119797;28;20195;-87
2022/10/25 15:05:01;;;;;;;7.50;1.87;;;16.70;99.90;;;;;;5118128;28;20167;-88
2022/10/25 15:07:41;;;;;;;3.90;1.60;;;16.60;99.90;;;;;;5117614;28;20282;-87
2022/10/25 15:10:29;;;;;;;3.50;1.30;;;16.50;99.90;;;;;;5119346;28;20156;-87
2022/10/25 15:13:05;;;;;;;5.83;1.20;;;16.40;99.90;;;;;;5117826;28;20167;-87
2022/10/25 15:15:37;;;;;;;3.13;1.10;;;16.50;99.90;;;;;;5117948;28;20160;-88
2022/10/25 15:18:03;;;;;;;3.90;1.07;;;;;;;;;;5117039;28;20660;-88
2022/10/25 15:20:31;;;;;;;1.57;1.00;;;16.30;99.90;;;;;;5117139;28;20191;-87
2022/10/25 15:23:26;;;;;;;2.70;1.20;;;16.20;99.90;;;;;;5117716;28;20183;-86
2022/10/25 15:25:52;;;;;;;5.80;1.10;;;16.20;99.90;;;;;;5103733;28;20552;-88
2022/10/25 15:28:18;;;;;;;2.93;0.80;;;;;;;;;;5117275;28;20275;-87
2022/10/25 15:31:01;;;;;;;5.73;1.30;;;16.00;99.90;;;;;;5116126;28;20237;-88
2022/10/25 15:33:29;;;;;;;7.40;1.50;;;16.00;99.90;;;;;;5121205;28;20214;-86
2022/10/25 15:35:58;;;;;;;8.17;1.80;;;15.90;99.90;;;;;;5119799;28;20571;-88
2022/10/25 15:38:35;;;;;;;5.50;1.50;;;15.80;99.90;;;;;;5123211;28;20172;-89
2022/10/25 15:41:01;;;;;;;3.40;1.47;;;;;;;;;;5123326;28;20244;-86
2022/10/25 15:43:28;;;;;;;8.00;2.03;;;;;;;;;;5121337;28;20181;-86
2022/10/25 15:45:54;;;;;;;7.30;1.40;;;15.50;99.90;;;;;;5123151;28;20171;-85
2022/10/25 15:48:23;;;;;;;6.20;1.33;;;15.40;99.90;;;;;;5119995;28;20202;-88
2022/10/25 15:50:52;;;;;;;3.27;1.00;;;15.30;99.90;;;;;;5119591;28;20191;-84
2022/10/25 15:53:18;;;;;;;3.80;1.10;;;15.20;99.90;;;;;;5118914;28;20561;-84
2022/10/25 15:55:44;;;;;;;2.90;1.10;;;15.20;99.90;;;;;;5119213;28;20217;-85
2022/10/25 15:58:10;;;;;;;6.97;1.07;;;;;;;;;;5121628;27;20229;-86
2022/10/25 16:00:36;;;;;;;2.03;1.13;;;14.90;99.90;;;;;;5125827;27;20213;-88
2022/10/25 16:03:03;;;;;;;9.57;1.67;;;14.70;99.90;;;;;;5121784;28;20222;-88
2022/10/25 16:05:32;;;;;;;10.40;1.63;;;14.70;99.90;;;;;;5121446;28;20183;-88
2022/10/25 16:07:58;;;;;;;5.20;1.70;;;14.50;99.90;;;;;;5120678;28;20206;-89
2022/10/25 16:10:25;;;;;;;10.20;2.30;;;14.50;99.90;;;;;;5120578;28;20635;-88
2022/10/25 16:12:59;;;;;;;9.27;2.47;;;14.50;99.90;;;;;;5121404;28;20180;-88
2022/10/25 16:15:25;;;;;;;8.60;2.57;;;14.40;99.90;;;;;;5121604;28;20163;-88
2022/10/25 16:17:51;;;;;;;6.53;2.80;;;;;;;;;;5119622;28;20579;-89
2022/10/25 16:20:26;;;;;;;15.37;3.37;;;14.00;99.90;;;;;;5120121;28;20247;-87
2022/10/25 16:22:51;;;;;;;6.47;3.00;;;14.00;99.90;;;;;;5120378;28;20254;-89
2022/10/25 16:25:18;;;;;;;13.83;9.63;;;13.80;99.90;;;;;;5121386;28;20653;-88
2022/10/25 16:27:45;;;;;;;10.20;5.00;;;13.80;99.90;;;;;;5119823;28;20203;-89
2022/10/25 16:30:14;;;;;;;98.93;49.67;;;13.70;99.90;;;;;;5119735;28;20178;-88
2022/10/25 16:32:40;;;;;;;174.77;86.17;;;13.60;99.90;;;;;;5120288;28;20619;-89
2022/10/25 16:35:07;;;;;;;165.20;79.47;;;13.60;99.90;;;;;;5119689;28;20187;-88
2022/10/25 16:37:33;;;;;;;68.83;37.33;;;13.50;99.90;;;;;;5119418;28;20287;-88
2022/10/25 16:39:58;;;;;;;25.57;13.47;;;13.40;99.90;;;;;;5119227;28;20640;-89
2022/10/25 16:42:35;;;;;;;18.87;7.60;;;13.30;99.90;;;;;;5119979;28;20199;-88
2022/10/25 16:45:03;;;;;;;9.43;4.93;;;13.30;99.90;;;;;;5119560;28;20192;-88
2022/10/25 16:47:28;;;;;;;8.30;3.70;;;13.30;99.90;;;;;;5121073;28;20256;-86
2022/10/25 16:49:54;;;;;;;8.40;4.30;;;;;;;;;;5119747;28;20592;-89
2022/10/25 16:52:20;;;;;;;7.60;3.90;;;13.10;99.90;;;;;;5121419;28;20211;-88
2022/10/25 16:54:46;;;;;;;8.70;3.90;;;13.00;99.90;;;;;;5122777;28;20176;-87
2022/10/25 16:57:13;;;;;;;14.17;4.60;;;12.90;99.90;;;;;;5122080;28;20244;-88
2022/10/25 16:59:39;;;;;;;10.80;4.90;;;12.90;99.90;;;;;;5122784;28;20179;-88
2022/10/25 17:02:13;;;;;;;8.17;3.17;;;12.70;99.90;;;;;;5123238;28;20220;-87
2022/10/25 17:04:39;;;;;;;5.40;3.53;;;12.70;99.90;;;;;;5123982;27;20205;-89
2022/10/25 17:07:04;;;;;;;7.03;4.63;;;12.70;99.90;;;;;;5123823;28;20195;-89
2022/10/25 17:09:30;;;;;;;14.60;10.20;;;12.70;99.90;;;;;;5126010;28;20195;-89
2022/10/25 17:11:56;;;;;;;19.33;9.63;;;12.60;99.90;;;;;;5121487;28;20199;-89
2022/10/25 17:14:21;;;;;;;14.27;8.63;;;12.50;99.90;;;;;;5121056;28;20180;-88
2022/10/25 17:16:47;;;;;;;13.90;7.87;;;12.40;99.90;;;;;;5122173;28;20202;-87
2022/10/25 17:19:13;;;;;;;11.07;6.93;;;12.40;99.90;;;;;;5125850;28;20182;-88
2022/10/25 17:21:39;;;;;;;11.13;6.40;;;12.30;99.90;;;;;;5125585;28;20202;-89
2022/10/25 17:24:07;;;;;;;20.60;8.87;;;12.30;99.90;;;;;;5126241;28;20180;-89
2022/10/25 17:26:33;;;;;;;12.23;6.80;;;12.30;99.90;;;;;;5125859;28;20181;-88
2022/10/25 17:28:59;;;;;;;10.63;5.90;;;12.20;99.90;;;;;;5123706;28;20198;-88
2022/10/25 17:31:27;;;;;;;9.93;5.53;;;12.20;99.90;;;;;;5128577;28;20199;-90
2022/10/25 17:33:53;;;;;;;11.70;5.37;;;12.10;99.90;;;;;;5126396;28;20240;-89
2022/10/25 17:36:20;;;;;;;11.13;6.27;;;12.10;99.90;;;;;;5126052;28;20207;-89
2022/10/25 17:38:46;;;;;;;8.40;5.90;;;12.10;99.90;;;;;;5126579;28;20180;-89
2022/10/25 17:41:13;;;;;;;12.33;5.97;;;12.00;99.90;;;;;;5125342;28;20195;-90
2022/10/25 17:43:40;;;;;;;9.07;5.10;;;12.00;99.90;;;;;;5125287;28;20215;-89
2022/10/25 17:46:16;;;;;;;12.47;5.47;;;11.90;99.90;;;;;;5126837;28;20178;-89
2022/10/25 17:48:42;;;;;;;13.13;4.90;;;11.90;99.90;;;;;;5127813;28;20199;-89
2022/10/25 17:51:10;;;;;;;11.97;5.00;;;11.80;99.90;;;;;;5129135;28;20260;-90
2022/10/25 17:53:36;;;;;;;6.97;4.07;;;11.80;99.90;;;;;;5127878;28;20182;-89
2022/10/25 17:56:16;;;;;;;8.83;4.63;;;11.80;99.90;;;;;;5123760;28;20502;-89
2022/10/25 17:58:43;;;;;;;8.53;4.13;;;11.80;99.90;;;;;;5102540;28;20221;-91
2022/10/25 18:01:11;;;;;;;7.27;3.60;;;11.80;99.90;;;;;;5113787;28;20206;-88
2022/10/25 18:03:36;;;;;;;6.93;4.03;;;11.80;99.90;;;;;;5121078;28;20190;-89
2022/10/25 18:06:05;;;;;;;6.83;4.20;;;11.70;99.90;;;;;;5120021;28;20179;-89
2022/10/25 18:08:30;;;;;;;11.80;4.63;;;11.70;99.90;;;;;;5120253;28;20211;-90
2022/10/25 18:10:56;;;;;;;9.17;5.20;;;11.60;99.90;;;;;;5119272;28;20264;-90
2022/10/25 18:13:23;;;;;;;9.40;5.37;;;11.70;99.90;;;;;;5120655;28;20179;-88
2022/10/25 18:15:50;;;;;;;11.53;5.27;;;11.60;99.90;;;;;;5122529;28;20566;-87
2022/10/25 18:18:16;;;;;;;7.40;4.80;;;11.60;99.90;;;;;;5119823;28;20195;-88
2022/10/25 18:20:42;;;;;;;6.67;4.93;;;11.60;99.90;;;;;;5118500;28;20603;-89
2022/10/25 18:23:09;;;;;;;8.47;5.00;;;;;;;;;;5122563;28;20232;-89
2022/10/25 18:25:49;;;;;;;9.17;5.27;;;11.50;99.90;;;;;;5120855;28;20183;-87
2022/10/25 18:28:15;;;;;;;7.93;4.97;;;11.50;99.90;;;;;;5119662;28;20210;-89
2022/10/25 18:30:40;;;;;;;14.00;5.77;;;11.50;99.90;;;;;;5118454;28;20191;-86
2022/10/25 18:33:12;;;;;;;8.27;5.20;;;11.50;99.90;;;;;;5118150;28;20239;-86
2022/10/25 18:35:38;;;;;;;13.67;7.30;;;11.50;99.90;;;;;;5117022;28;20708;-87
2022/10/25 18:38:03;;;;;;;10.07;6.40;;;11.50;99.90;;;;;;5116884;28;20222;-84
2022/10/25 18:40:29;;;;;;;12.70;5.83;;;11.50;99.90;;;;;;5125197;28;20215;-87
2022/10/25 18:42:55;;;;;;;8.10;6.00;;;11.50;99.90;;;;;;5130496;28;20175;-88
2022/10/25 18:45:20;;;;;;;6.93;5.00;;;11.50;99.90;;;;;;5135311;28;20175;-88
2022/10/25 18:47:52;;;;;;;6.40;4.47;;;11.50;99.90;;;;;;5120483;28;20653;-88
2022/10/25 18:50:19;;;;;;;6.90;4.00;;;11.40;99.90;;;;;;5119410;28;20708;-88
2022/10/25 18:52:44;;;;;;;8.17;3.90;;;11.40;99.90;;;;;;5121202;28;20179;-89
2022/10/25 18:55:14;;;;;;;8.80;4.10;;;11.30;99.90;;;;;;5120832;28;20187;-88
2022/10/25 18:57:40;;;;;;;5.20;3.97;;;11.30;99.90;;;;;;5118973;28;20199;-88
2022/10/25 19:00:07;;;;;;;8.33;4.47;;;11.20;99.90;;;;;;5119062;28;20179;-88
2022/10/25 19:02:32;;;;;;;8.30;4.47;;;11.20;99.90;;;;;;5118893;28;20199;-87
2022/10/25 19:04:58;;;;;;;12.00;4.23;;;11.20;99.90;;;;;;5118855;28;20186;-87
2022/10/25 19:07:24;;;;;;;8.30;3.70;;;11.20;99.90;;;;;;5118752;28;20680;-88
2022/10/25 19:09:50;;;;;;;5.30;3.40;;;11.20;99.90;;;;;;5118413;28;20551;-87
2022/10/25 19:12:15;;;;;;;6.27;3.63;;;11.20;99.90;;;;;;5117302;28;20680;-88
2022/10/25 19:14:41;;;;;;;8.33;4.07;;;11.20;99.90;;;;;;5117504;28;20176;-88
2022/10/25 19:17:08;;;;;;;8.93;6.53;;;11.20;99.90;;;;;;5122420;28;20201;-87
2022/10/25 19:19:33;;;;;;;15.27;8.23;;;11.20;99.90;;;;;;5120860;28;20195;-88
2022/10/25 19:21:59;;;;;;;16.50;10.30;;;11.20;99.90;;;;;;5120076;28;20558;-87
2022/10/25 19:24:25;;;;;;;18.43;11.00;;;11.20;99.90;;;;;;5119895;28;20312;-87
2022/10/25 19:26:51;;;;;;;8.87;6.43;;;11.20;99.90;;;;;;5119781;28;20656;-87
2022/10/25 19:29:16;;;;;;;7.93;4.47;;;11.10;99.90;;;;;;5120793;28;20190;-88
2022/10/25 19:31:42;;;;;;;7.27;4.57;;;11.10;99.90;;;;;;5121221;28;20266;-89
2022/10/25 19:34:08;;;;;;;6.93;4.87;;;11.00;99.90;;;;;;5121864;28;20238;-89
2022/10/25 19:36:34;;;;;;;11.20;6.10;;;10.90;99.90;;;;;;5121025;28;20270;-90
2022/10/25 19:39:00;;;;;;;13.13;7.73;;;10.80;99.90;;;;;;5120925;28;20691;-87
2022/10/25 19:41:26;;;;;;;26.20;21.77;;;10.80;99.90;;;;;;5119947;28;20195;-89
2022/10/25 19:43:52;;;;;;;17.97;14.37;;;10.80;99.90;;;;;;5121219;28;20166;-87
2022/10/25 19:46:18;;;;;;;14.73;12.50;;;10.70;99.90;;;;;;5121421;28;20186;-89
2022/10/25 19:48:44;;;;;;;21.80;14.47;;;10.70;99.90;;;;;;5118575;28;20207;-87
2022/10/25 19:51:15;;;;;;;11.97;10.77;;;10.70;99.90;;;;;;5118273;28;20247;-90
2022/10/25 19:53:42;;;;;;;13.17;10.27;;;10.60;99.90;;;;;;5118775;28;20174;-90
2022/10/25 19:56:16;;;;;;;9.30;5.80;;;10.70;99.90;;;;;;5118671;28;20197;-88
2022/10/25 19:58:42;;;;;;;10.47;5.57;;;10.60;99.90;;;;;;5120648;28;20517;-89
2022/10/25 20:01:16;;;;;;;9.53;6.60;;;10.50;99.90;;;;;;5118994;28;20200;-87
2022/10/25 20:03:43;;;;;;;8.73;6.93;;;10.50;99.90;;;;;;5120234;28;20160;-88
2022/10/25 20:06:15;;;;;;;12.93;5.03;;;10.50;99.90;;;;;;5119731;28;20172;-88
2022/10/25 20:08:40;;;;;;;6.53;4.70;;;10.40;99.90;;;;;;5120650;28;20553;-88
2022/10/25 20:11:07;;;;;;;8.70;4.93;;;10.40;99.90;;;;;;5119436;28;20196;-88
2022/10/25 20:13:33;;;;;;;6.40;3.87;;;10.30;99.90;;;;;;5120722;28;20264;-88
2022/10/25 20:15:59;;;;;;;11.73;4.87;;;10.30;99.90;;;;;;5119706;28;20205;-90
2022/10/25 20:18:29;;;;;;;11.57;4.50;;;10.30;99.90;;;;;;5119217;28;20195;-87
2022/10/25 20:21:00;;;;;;;9.17;4.77;;;10.30;99.90;;;;;;5119038;28;20212;-86
2022/10/25 20:23:27;;;;;;;10.43;6.20;;;10.20;99.90;;;;;;5118919;28;20222;-88
2022/10/25 20:25:53;;;;;;;7.77;4.43;;;10.20;99.90;;;;;;5122155;28;20178;-87
2022/10/25 20:28:19;;;;;;;9.93;4.57;;;10.30;99.90;;;;;;5122347;28;20210;-86
2022/10/25 20:30:45;;;;;;;6.97;4.93;;;10.20;99.90;;;;;;5123003;28;20198;-88
2022/10/25 20:33:10;;;;;;;8.23;4.77;;;10.20;99.90;;;;;;5123464;28;20175;-86